sensor_id;sensor_type;location;lat;lon;timestamp;pressure;altitude;pressure_sealevel;temperature;humidity
75945;BME280;64628;50.104;14.614;2024-03-07T00:02:07;99237.84;;;7.91;36.13
75945;BME280;64628;50.104;14.614;2024-03-07T00:04:32;99232.59;;;8.19;36.34
75945;BME280;64628;50.104;14.614;2024-03-07T00:06:58;99236.14;;;7.64;36.59
75945;BME280;64628;50.104;14.614;2024-03-07T00:09:23;99234.97;;;8.00;36.42
75945;BME280;64628;50.104;14.614;2024-03-07T00:11:49;99234.92;;;7.95;36.48
75945;BME280;64628;50.104;14.614;2024-03-07T00:14:14;99234.35;;;8.01;36.54
75945;BME280;64628;50.104;14.614;2024-03-07T00:16:40;99233.24;;;8.12;36.37
75945;BME280;64628;50.104;14.614;2024-03-07T00:19:05;99232.18;;;8.08;36.38
75945;BME280;64628;50.104;14.614;2024-03-07T00:21:31;99231.87;;;7.90;36.30
75945;BME280;64628;50.104;14.614;2024-03-07T00:23:56;99229.10;;;8.15;36.46
75945;BME280;64628;50.104;14.614;2024-03-07T00:26:22;99229.26;;;8.06;36.99
75945;BME280;64628;50.104;14.614;2024-03-07T00:28:47;99228.73;;;7.80;37.12
75945;BME280;64628;50.104;14.614;2024-03-07T00:31:12;99225.31;;;7.89;37.01
75945;BME280;64628;50.104;14.614;2024-03-07T00:33:38;99224.62;;;7.88;37.09
75945;BME280;64628;50.104;14.614;2024-03-07T00:36:04;99222.49;;;7.90;37.20
75945;BME280;64628;50.104;14.614;2024-03-07T00:38:28;99223.17;;;7.87;37.28
75945;BME280;64628;50.104;14.614;2024-03-07T00:40:54;99224.95;;;7.94;37.14
75945;BME280;64628;50.104;14.614;2024-03-07T00:43:19;99224.99;;;8.01;37.24
75945;BME280;64628;50.104;14.614;2024-03-07T00:45:45;99225.03;;;7.64;37.75
75945;BME280;64628;50.104;14.614;2024-03-07T00:48:11;99222.40;;;7.88;37.85
75945;BME280;64628;50.104;14.614;2024-03-07T00:50:37;99220.56;;;7.74;37.80
75945;BME280;64628;50.104;14.614;2024-03-07T00:53:03;99218.95;;;8.00;37.81
75945;BME280;64628;50.104;14.614;2024-03-07T00:55:28;99217.52;;;7.93;37.70
75945;BME280;64628;50.104;14.614;2024-03-07T00:57:53;99217.01;;;7.91;37.85
75945;BME280;64628;50.104;14.614;2024-03-07T01:00:20;99214.36;;;7.98;37.77
75945;BME280;64628;50.104;14.614;2024-03-07T01:02:45;99212.44;;;7.92;37.94
75945;BME280;64628;50.104;14.614;2024-03-07T01:05:10;99209.70;;;7.85;38.49
75945;BME280;64628;50.104;14.614;2024-03-07T01:07:36;99210.53;;;7.70;38.42
75945;BME280;64628;50.104;14.614;2024-03-07T01:10:01;99209.66;;;7.80;38.32
75945;BME280;64628;50.104;14.614;2024-03-07T01:12:26;99210.21;;;7.74;38.56
75945;BME280;64628;50.104;14.614;2024-03-07T01:14:52;99209.06;;;7.91;38.41
75945;BME280;64628;50.104;14.614;2024-03-07T01:17:17;99208.72;;;8.00;38.25
75945;BME280;64628;50.104;14.614;2024-03-07T01:19:42;99207.29;;;7.82;38.61
75945;BME280;64628;50.104;14.614;2024-03-07T01:22:08;99201.48;;;7.75;38.73
75945;BME280;64628;50.104;14.614;2024-03-07T01:24:34;99200.87;;;7.93;38.68
75945;BME280;64628;50.104;14.614;2024-03-07T01:26:59;99201.59;;;7.98;38.69
75945;BME280;64628;50.104;14.614;2024-03-07T01:29:25;99203.11;;;7.98;38.71
75945;BME280;64628;50.104;14.614;2024-03-07T01:31:50;99203.65;;;8.00;38.99
75945;BME280;64628;50.104;14.614;2024-03-07T01:34:15;99201.21;;;8.02;38.87
75945;BME280;64628;50.104;14.614;2024-03-07T01:36:41;99199.19;;;7.83;38.92
75945;BME280;64628;50.104;14.614;2024-03-07T01:39:06;99197.37;;;8.17;38.67
75945;BME280;64628;50.104;14.614;2024-03-07T01:41:32;99198.08;;;7.98;39.01
75945;BME280;64628;50.104;14.614;2024-03-07T01:43:58;99199.03;;;7.93;39.08
75945;BME280;64628;50.104;14.614;2024-03-07T01:46:23;99194.11;;;8.14;39.19
75945;BME280;64628;50.104;14.614;2024-03-07T01:48:49;99194.94;;;7.85;39.34
75945;BME280;64628;50.104;14.614;2024-03-07T01:51:14;99192.90;;;7.82;39.35
75945;BME280;64628;50.104;14.614;2024-03-07T01:53:40;99193.23;;;7.87;39.27
75945;BME280;64628;50.104;14.614;2024-03-07T01:56:06;99193.89;;;7.93;39.36
75945;BME280;64628;50.104;14.614;2024-03-07T01:58:31;99193.07;;;7.94;39.45
75945;BME280;64628;50.104;14.614;2024-03-07T02:00:56;99195.92;;;7.88;39.61
75945;BME280;64628;50.104;14.614;2024-03-07T02:03:21;99193.58;;;8.02;39.42
75945;BME280;64628;50.104;14.614;2024-03-07T02:05:47;99190.01;;;8.00;39.56
75945;BME280;64628;50.104;14.614;2024-03-07T02:08:12;99191.62;;;7.84;39.99
75945;BME280;64628;50.104;14.614;2024-03-07T02:10:38;99189.38;;;7.77;40.17
75945;BME280;64628;50.104;14.614;2024-03-07T02:13:03;99186.86;;;8.08;40.17
75945;BME280;64628;50.104;14.614;2024-03-07T02:15:28;99187.23;;;7.80;40.72
75945;BME280;64628;50.104;14.614;2024-03-07T02:17:53;99186.22;;;7.53;40.83
75945;BME280;64628;50.104;14.614;2024-03-07T02:20:19;99183.26;;;7.75;40.54
75945;BME280;64628;50.104;14.614;2024-03-07T02:22:44;99178.44;;;7.74;40.97
75945;BME280;64628;50.104;14.614;2024-03-07T02:25:09;99174.44;;;7.39;41.20
75945;BME280;64628;50.104;14.614;2024-03-07T02:27:34;99173.93;;;7.57;40.99
75945;BME280;64628;50.104;14.614;2024-03-07T02:30:00;99171.30;;;7.61;40.94
75945;BME280;64628;50.104;14.614;2024-03-07T02:32:25;99168.10;;;7.40;41.31
75945;BME280;64628;50.104;14.614;2024-03-07T02:34:51;99167.24;;;7.59;41.10
75945;BME280;64628;50.104;14.614;2024-03-07T02:37:16;99167.32;;;8.04;40.80
75945;BME280;64628;50.104;14.614;2024-03-07T02:39:41;99165.55;;;7.69;40.93
75945;BME280;64628;50.104;14.614;2024-03-07T02:42:06;99163.79;;;7.80;40.83
75945;BME280;64628;50.104;14.614;2024-03-07T02:44:32;99157.85;;;7.84;40.76
75945;BME280;64628;50.104;14.614;2024-03-07T02:46:57;99159.94;;;7.64;41.14
75945;BME280;64628;50.104;14.614;2024-03-07T02:49:23;99161.55;;;8.00;40.89
75945;BME280;64628;50.104;14.614;2024-03-07T02:51:48;99162.53;;;7.72;41.00
75945;BME280;64628;50.104;14.614;2024-03-07T02:54:13;99156.80;;;7.80;40.87
75945;BME280;64628;50.104;14.614;2024-03-07T02:56:39;99156.91;;;7.78;40.98
75945;BME280;64628;50.104;14.614;2024-03-07T02:59:05;99156.03;;;7.74;41.05
75945;BME280;64628;50.104;14.614;2024-03-07T03:01:30;99157.56;;;7.66;41.17
75945;BME280;64628;50.104;14.614;2024-03-07T03:03:55;99157.23;;;7.83;41.38
75945;BME280;64628;50.104;14.614;2024-03-07T03:06:21;99158.07;;;7.96;41.26
75945;BME280;64628;50.104;14.614;2024-03-07T03:08:46;99154.96;;;7.46;41.60
75945;BME280;64628;50.104;14.614;2024-03-07T03:11:12;99153.36;;;7.98;41.22
75945;BME280;64628;50.104;14.614;2024-03-07T03:13:38;99153.29;;;7.88;40.99
75945;BME280;64628;50.104;14.614;2024-03-07T03:16:04;99153.22;;;7.75;41.12
75945;BME280;64628;50.104;14.614;2024-03-07T03:18:29;99157.54;;;7.70;41.16
75945;BME280;64628;50.104;14.614;2024-03-07T03:20:54;99159.37;;;7.49;41.08
75945;BME280;64628;50.104;14.614;2024-03-07T03:23:19;99159.07;;;7.79;41.09
75945;BME280;64628;50.104;14.614;2024-03-07T03:25:45;99159.41;;;8.08;41.05
75945;BME280;64628;50.104;14.614;2024-03-07T03:28:11;99159.25;;;7.89;40.98
75945;BME280;64628;50.104;14.614;2024-03-07T03:30:37;99160.37;;;7.75;41.11
75945;BME280;64628;50.104;14.614;2024-03-07T03:33:02;99159.55;;;7.88;40.97
75945;BME280;64628;50.104;14.614;2024-03-07T03:35:27;99159.10;;;7.84;41.03
75945;BME280;64628;50.104;14.614;2024-03-07T03:37:52;99157.93;;;7.84;41.08
75945;BME280;64628;50.104;14.614;2024-03-07T03:40:18;99159.03;;;7.74;41.01
75945;BME280;64628;50.104;14.614;2024-03-07T03:42:43;99158.29;;;7.74;41.02
75945;BME280;64628;50.104;14.614;2024-03-07T03:45:10;99154.63;;;7.54;41.01
75945;BME280;64628;50.104;14.614;2024-03-07T03:47:34;99157.65;;;7.97;41.03
75945;BME280;64628;50.104;14.614;2024-03-07T03:49:59;99156.47;;;7.82;40.99
75945;BME280;64628;50.104;14.614;2024-03-07T03:52:24;99157.01;;;8.05;40.68
75945;BME280;64628;50.104;14.614;2024-03-07T03:54:50;99154.00;;;8.19;40.79
75945;BME280;64628;50.104;14.614;2024-03-07T03:57:15;99152.34;;;8.07;40.89
75945;BME280;64628;50.104;14.614;2024-03-07T03:59:43;99154.12;;;7.65;40.84
75945;BME280;64628;50.104;14.614;2024-03-07T04:02:05;99153.44;;;7.99;40.75
75945;BME280;64628;50.104;14.614;2024-03-07T04:04:31;99153.74;;;7.92;40.76
75945;BME280;64628;50.104;14.614;2024-03-07T04:06:56;99150.87;;;7.73;40.73
75945;BME280;64628;50.104;14.614;2024-03-07T04:09:22;99147.90;;;8.09;40.59
75945;BME280;64628;50.104;14.614;2024-03-07T04:11:47;99148.82;;;7.75;40.71
75945;BME280;64628;50.104;14.614;2024-03-07T04:14:12;99148.33;;;7.94;40.79
75945;BME280;64628;50.104;14.614;2024-03-07T04:16:38;99148.99;;;7.81;41.01
75945;BME280;64628;50.104;14.614;2024-03-07T04:19:03;99149.52;;;7.66;41.10
75945;BME280;64628;50.104;14.614;2024-03-07T04:21:28;99151.76;;;7.88;41.26
75945;BME280;64628;50.104;14.614;2024-03-07T04:23:54;99151.53;;;7.79;40.98
75945;BME280;64628;50.104;14.614;2024-03-07T04:26:20;99147.76;;;7.94;40.69
75945;BME280;64628;50.104;14.614;2024-03-07T04:28:46;99149.82;;;7.82;40.78
75945;BME280;64628;50.104;14.614;2024-03-07T04:31:11;99147.99;;;7.90;40.77
75945;BME280;64628;50.104;14.614;2024-03-07T04:33:37;99148.78;;;7.71;41.04
75945;BME280;64628;50.104;14.614;2024-03-07T04:36:04;99151.17;;;7.65;41.02
75945;BME280;64628;50.104;14.614;2024-03-07T04:38:29;99151.58;;;7.70;41.24
75945;BME280;64628;50.104;14.614;2024-03-07T04:40:55;99153.52;;;8.04;40.91
75945;BME280;64628;50.104;14.614;2024-03-07T04:43:20;99153.98;;;7.90;40.68
75945;BME280;64628;50.104;14.614;2024-03-07T04:45:45;99157.07;;;7.82;40.81
75945;BME280;64628;50.104;14.614;2024-03-07T04:48:11;99158.79;;;7.72;40.78
75945;BME280;64628;50.104;14.614;2024-03-07T04:50:36;99157.09;;;7.89;40.44
75945;BME280;64628;50.104;14.614;2024-03-07T04:53:01;99157.43;;;7.88;40.39
75945;BME280;64628;50.104;14.614;2024-03-07T04:55:27;99156.48;;;7.84;40.41
75945;BME280;64628;50.104;14.614;2024-03-07T04:57:53;99158.40;;;7.97;40.04
75945;BME280;64628;50.104;14.614;2024-03-07T05:00:18;99158.66;;;7.58;40.33
75945;BME280;64628;50.104;14.614;2024-03-07T05:02:46;99161.64;;;7.96;39.90
75945;BME280;64628;50.104;14.614;2024-03-07T05:05:09;99159.12;;;7.81;39.58
75945;BME280;64628;50.104;14.614;2024-03-07T05:07:35;99166.08;;;7.69;39.45
75945;BME280;64628;50.104;14.614;2024-03-07T05:10:01;99164.40;;;8.32;39.03
75945;BME280;64628;50.104;14.614;2024-03-07T05:12:25;99167.45;;;7.73;38.94
75945;BME280;64628;50.104;14.614;2024-03-07T05:14:51;99168.39;;;7.71;38.40
75945;BME280;64628;50.104;14.614;2024-03-07T05:17:17;99170.05;;;7.76;38.49
75945;BME280;64628;50.104;14.614;2024-03-07T05:19:42;99173.71;;;7.61;38.29
75945;BME280;64628;50.104;14.614;2024-03-07T05:22:08;99177.28;;;7.77;38.05
75945;BME280;64628;50.104;14.614;2024-03-07T05:24:33;99175.29;;;7.94;37.77
75945;BME280;64628;50.104;14.614;2024-03-07T05:26:58;99177.76;;;7.71;37.44
75945;BME280;64628;50.104;14.614;2024-03-07T05:29:23;99179.96;;;7.80;37.37
75945;BME280;64628;50.104;14.614;2024-03-07T05:31:49;99180.80;;;8.27;37.22
75945;BME280;64628;50.104;14.614;2024-03-07T05:34:14;99182.77;;;7.65;37.06
75945;BME280;64628;50.104;14.614;2024-03-07T05:36:40;99180.09;;;7.45;36.93
75945;BME280;64628;50.104;14.614;2024-03-07T05:39:05;99183.66;;;7.56;37.10
75945;BME280;64628;50.104;14.614;2024-03-07T05:41:31;99183.45;;;7.37;36.60
75945;BME280;64628;50.104;14.614;2024-03-07T05:43:56;99182.29;;;7.69;36.49
75945;BME280;64628;50.104;14.614;2024-03-07T05:46:22;99190.12;;;8.15;36.14
75945;BME280;64628;50.104;14.614;2024-03-07T05:48:47;99187.41;;;7.71;35.94
75945;BME280;64628;50.104;14.614;2024-03-07T05:51:12;99189.67;;;7.67;35.40
75945;BME280;64628;50.104;14.614;2024-03-07T05:53:38;99193.84;;;7.71;34.92
75945;BME280;64628;50.104;14.614;2024-03-07T05:56:04;99194.12;;;7.62;35.10
75945;BME280;64628;50.104;14.614;2024-03-07T05:58:29;99194.81;;;7.80;34.90
75945;BME280;64628;50.104;14.614;2024-03-07T06:00:55;99197.83;;;8.01;34.27
75945;BME280;64628;50.104;14.614;2024-03-07T06:03:20;99198.96;;;7.95;34.36
75945;BME280;64628;50.104;14.614;2024-03-07T06:05:45;99200.31;;;7.93;33.85
75945;BME280;64628;50.104;14.614;2024-03-07T06:08:11;99197.30;;;7.91;34.05
75945;BME280;64628;50.104;14.614;2024-03-07T06:10:36;99201.31;;;7.89;34.03
75945;BME280;64628;50.104;14.614;2024-03-07T06:13:01;99205.21;;;7.94;33.97
75945;BME280;64628;50.104;14.614;2024-03-07T06:15:27;99208.18;;;7.93;33.76
75945;BME280;64628;50.104;14.614;2024-03-07T06:17:51;99203.90;;;7.98;33.12
75945;BME280;64628;50.104;14.614;2024-03-07T06:20:17;99203.67;;;8.07;32.42
75945;BME280;64628;50.104;14.614;2024-03-07T06:22:42;99202.84;;;8.02;32.17
75945;BME280;64628;50.104;14.614;2024-03-07T06:25:08;99202.32;;;8.04;32.28
75945;BME280;64628;50.104;14.614;2024-03-07T06:27:33;99199.12;;;8.20;31.91
75945;BME280;64628;50.104;14.614;2024-03-07T06:29:59;99204.88;;;7.71;32.36
75945;BME280;64628;50.104;14.614;2024-03-07T06:32:25;99206.93;;;8.35;32.01
75945;BME280;64628;50.104;14.614;2024-03-07T06:34:50;99206.95;;;8.26;31.84
75945;BME280;64628;50.104;14.614;2024-03-07T06:37:16;99208.35;;;7.82;31.75
75945;BME280;64628;50.104;14.614;2024-03-07T06:39:41;99208.85;;;7.84;31.33
75945;BME280;64628;50.104;14.614;2024-03-07T06:42:07;99209.28;;;8.18;30.86
75945;BME280;64628;50.104;14.614;2024-03-07T06:44:32;99211.38;;;7.83;30.78
75945;BME280;64628;50.104;14.614;2024-03-07T06:46:57;99208.42;;;8.32;30.52
75945;BME280;64628;50.104;14.614;2024-03-07T06:49:23;99209.95;;;8.45;30.41
75945;BME280;64628;50.104;14.614;2024-03-07T06:51:49;99210.23;;;8.40;30.09
75945;BME280;64628;50.104;14.614;2024-03-07T06:54:14;99212.70;;;8.46;29.63
75945;BME280;64628;50.104;14.614;2024-03-07T06:56:40;99213.66;;;8.21;29.82
75945;BME280;64628;50.104;14.614;2024-03-07T06:59:05;99219.31;;;8.36;29.70
75945;BME280;64628;50.104;14.614;2024-03-07T07:01:31;99220.76;;;8.68;29.58
75945;BME280;64628;50.104;14.614;2024-03-07T07:03:56;99217.86;;;8.74;29.42
75945;BME280;64628;50.104;14.614;2024-03-07T07:06:21;99219.28;;;8.73;29.15
75945;BME280;64628;50.104;14.614;2024-03-07T07:08:46;99222.71;;;9.15;29.15
75945;BME280;64628;50.104;14.614;2024-03-07T07:11:12;99227.30;;;9.58;29.16
75945;BME280;64628;50.104;14.614;2024-03-07T07:13:37;99224.87;;;8.83;29.28
75945;BME280;64628;50.104;14.614;2024-03-07T07:16:04;99231.83;;;9.13;28.90
75945;BME280;64628;50.104;14.614;2024-03-07T07:18:29;99227.32;;;8.89;28.55
75945;BME280;64628;50.104;14.614;2024-03-07T07:20:54;99230.69;;;8.95;28.60
75945;BME280;64628;50.104;14.614;2024-03-07T07:23:20;99231.45;;;9.17;28.91
75945;BME280;64628;50.104;14.614;2024-03-07T07:25:46;99229.35;;;9.32;28.57
75945;BME280;64628;50.104;14.614;2024-03-07T07:28:11;99230.71;;;9.22;28.74
75945;BME280;64628;50.104;14.614;2024-03-07T07:30:37;99229.31;;;9.82;28.52
75945;BME280;64628;50.104;14.614;2024-03-07T07:33:02;99224.58;;;9.26;28.78
75945;BME280;64628;50.104;14.614;2024-03-07T07:35:27;99223.28;;;9.42;28.73
75945;BME280;64628;50.104;14.614;2024-03-07T07:37:53;99223.80;;;9.49;28.69
75945;BME280;64628;50.104;14.614;2024-03-07T07:40:19;99225.79;;;9.63;28.62
75945;BME280;64628;50.104;14.614;2024-03-07T07:42:43;99224.97;;;9.59;28.74
75945;BME280;64628;50.104;14.614;2024-03-07T07:45:10;99225.92;;;9.37;28.66
75945;BME280;64628;50.104;14.614;2024-03-07T07:47:34;99226.67;;;9.42;28.45
75945;BME280;64628;50.104;14.614;2024-03-07T07:50:00;99228.68;;;9.71;28.02
75945;BME280;64628;50.104;14.614;2024-03-07T07:52:25;99230.47;;;9.94;28.24
75945;BME280;64628;50.104;14.614;2024-03-07T07:54:51;99231.51;;;9.77;28.10
75945;BME280;64628;50.104;14.614;2024-03-07T07:57:16;99232.64;;;10.11;27.83
75945;BME280;64628;50.104;14.614;2024-03-07T07:59:42;99230.59;;;9.80;27.66
75945;BME280;64628;50.104;14.614;2024-03-07T08:02:07;99227.24;;;10.01;27.79
75945;BME280;64628;50.104;14.614;2024-03-07T08:04:33;99229.14;;;10.68;27.33
75945;BME280;64628;50.104;14.614;2024-03-07T08:06:59;99228.35;;;10.33;27.40
75945;BME280;64628;50.104;14.614;2024-03-07T08:09:24;99227.97;;;10.60;26.85
75945;BME280;64628;50.104;14.614;2024-03-07T08:11:49;99230.01;;;10.93;26.75
75945;BME280;64628;50.104;14.614;2024-03-07T08:14:15;99229.14;;;10.63;26.90
75945;BME280;64628;50.104;14.614;2024-03-07T08:16:40;99226.42;;;10.79;26.80
75945;BME280;64628;50.104;14.614;2024-03-07T08:19:06;99225.24;;;11.16;26.61
75945;BME280;64628;50.104;14.614;2024-03-07T08:21:32;99225.74;;;10.79;25.95
75945;BME280;64628;50.104;14.614;2024-03-07T08:23:57;99225.71;;;11.28;25.64
75945;BME280;64628;50.104;14.614;2024-03-07T08:26:22;99225.34;;;11.41;25.19
75945;BME280;64628;50.104;14.614;2024-03-07T08:28:48;99226.49;;;11.81;25.12
75945;BME280;64628;50.104;14.614;2024-03-07T08:31:13;99223.47;;;11.87;25.07
75945;BME280;64628;50.104;14.614;2024-03-07T08:33:39;99229.10;;;12.15;25.19
75945;BME280;64628;50.104;14.614;2024-03-07T08:36:05;99225.34;;;12.18;24.90
75945;BME280;64628;50.104;14.614;2024-03-07T08:38:30;99222.51;;;12.49;24.73
75945;BME280;64628;50.104;14.614;2024-03-07T08:40:56;99223.46;;;12.01;24.95
75945;BME280;64628;50.104;14.614;2024-03-07T08:43:21;99219.81;;;12.70;24.57
75945;BME280;64628;50.104;14.614;2024-03-07T08:45:47;99220.52;;;12.86;23.86
75945;BME280;64628;50.104;14.614;2024-03-07T08:48:13;99219.31;;;13.33;23.58
75945;BME280;64628;50.104;14.614;2024-03-07T08:50:38;99220.87;;;13.53;23.44
75945;BME280;64628;50.104;14.614;2024-03-07T08:53:04;99221.02;;;13.75;22.99
75945;BME280;64628;50.104;14.614;2024-03-07T08:55:28;99220.29;;;13.80;22.84
75945;BME280;64628;50.104;14.614;2024-03-07T08:57:54;99218.98;;;13.47;22.67
75945;BME280;64628;50.104;14.614;2024-03-07T09:00:20;99217.82;;;13.77;22.84
75945;BME280;64628;50.104;14.614;2024-03-07T09:02:45;99210.78;;;13.55;22.81
75945;BME280;64628;50.104;14.614;2024-03-07T09:05:11;99215.95;;;13.57;22.78
75945;BME280;64628;50.104;14.614;2024-03-07T09:07:37;99217.21;;;13.70;22.65
75945;BME280;64628;50.104;14.614;2024-03-07T09:10:02;99217.66;;;12.92;23.17
75945;BME280;64628;50.104;14.614;2024-03-07T09:12:28;99213.00;;;13.57;23.26
75945;BME280;64628;50.104;14.614;2024-03-07T09:14:54;99213.23;;;13.75;23.44
75945;BME280;64628;50.104;14.614;2024-03-07T09:17:19;99214.31;;;13.38;23.03
75945;BME280;64628;50.104;14.614;2024-03-07T09:19:44;99205.24;;;13.02;23.62
75945;BME280;64628;50.104;14.614;2024-03-07T09:22:09;99213.03;;;12.75;23.88
75945;BME280;64628;50.104;14.614;2024-03-07T09:24:34;99218.94;;;12.10;24.66
75945;BME280;64628;50.104;14.614;2024-03-07T09:27:00;99219.08;;;12.06;24.65
75945;BME280;64628;50.104;14.614;2024-03-07T09:29:25;99218.51;;;11.45;25.13
75945;BME280;64628;50.104;14.614;2024-03-07T09:31:50;99217.23;;;11.63;25.47
75945;BME280;64628;50.104;14.614;2024-03-07T09:34:16;99215.42;;;11.50;25.21
75945;BME280;64628;50.104;14.614;2024-03-07T09:36:42;99215.75;;;11.09;25.85
75945;BME280;64628;50.104;14.614;2024-03-07T09:39:07;99215.31;;;11.31;26.08
75945;BME280;64628;50.104;14.614;2024-03-07T09:41:33;99215.39;;;10.97;26.24
75945;BME280;64628;50.104;14.614;2024-03-07T09:43:59;99213.87;;;10.78;26.75
75945;BME280;64628;50.104;14.614;2024-03-07T09:46:24;99220.47;;;11.01;26.87
75945;BME280;64628;50.104;14.614;2024-03-07T09:48:49;99216.32;;;11.18;26.88
75945;BME280;64628;50.104;14.614;2024-03-07T09:51:15;99217.70;;;10.72;26.01
75945;BME280;64628;50.104;14.614;2024-03-07T09:53:40;99221.29;;;10.91;26.26
75945;BME280;64628;50.104;14.614;2024-03-07T09:56:06;99221.47;;;10.77;26.20
75945;BME280;64628;50.104;14.614;2024-03-07T09:58:31;99221.92;;;10.31;26.58
75945;BME280;64628;50.104;14.614;2024-03-07T10:00:56;99221.45;;;10.82;26.70
75945;BME280;64628;50.104;14.614;2024-03-07T10:03:23;99224.60;;;10.77;25.97
75945;BME280;64628;50.104;14.614;2024-03-07T10:05:47;99222.22;;;11.06;26.37
75945;BME280;64628;50.104;14.614;2024-03-07T10:08:12;99220.87;;;11.48;25.84
75945;BME280;64628;50.104;14.614;2024-03-07T10:10:38;99223.64;;;11.30;25.86
75945;BME280;64628;50.104;14.614;2024-03-07T10:13:03;99219.83;;;11.79;25.22
75945;BME280;64628;50.104;14.614;2024-03-07T10:15:29;99227.21;;;11.47;25.45
75945;BME280;64628;50.104;14.614;2024-03-07T10:17:54;99225.16;;;11.20;25.34
75945;BME280;64628;50.104;14.614;2024-03-07T10:20:20;99221.10;;;11.37;25.23
75945;BME280;64628;50.104;14.614;2024-03-07T10:22:45;99219.73;;;11.60;25.23
75945;BME280;64628;50.104;14.614;2024-03-07T10:25:10;99222.54;;;11.47;25.51
75945;BME280;64628;50.104;14.614;2024-03-07T10:27:37;99224.92;;;11.57;25.54
75945;BME280;64628;50.104;14.614;2024-03-07T10:30:01;99223.22;;;11.75;25.66
75945;BME280;64628;50.104;14.614;2024-03-07T10:32:27;99224.62;;;11.99;25.46
75945;BME280;64628;50.104;14.614;2024-03-07T10:34:53;99221.22;;;11.68;25.41
75945;BME280;64628;50.104;14.614;2024-03-07T10:37:19;99219.90;;;12.05;25.52
75945;BME280;64628;50.104;14.614;2024-03-07T10:39:44;99220.83;;;12.38;25.09
75945;BME280;64628;50.104;14.614;2024-03-07T10:42:13;99221.78;;;12.14;25.20
75945;BME280;64628;50.104;14.614;2024-03-07T10:44:38;99219.96;;;11.81;25.80
75945;BME280;64628;50.104;14.614;2024-03-07T10:47:00;99220.38;;;12.21;25.86
75945;BME280;64628;50.104;14.614;2024-03-07T10:49:26;99218.00;;;12.00;25.42
75945;BME280;64628;50.104;14.614;2024-03-07T10:52:00;99221.45;;;11.99;25.61
75945;BME280;64628;50.104;14.614;2024-03-07T10:54:20;99221.17;;;12.13;25.58
75945;BME280;64628;50.104;14.614;2024-03-07T10:57:04;99220.31;;;12.14;25.27
75945;BME280;64628;50.104;14.614;2024-03-07T10:59:15;99221.22;;;12.10;25.58
75945;BME280;64628;50.104;14.614;2024-03-07T11:01:34;99218.17;;;12.10;25.39
75945;BME280;64628;50.104;14.614;2024-03-07T11:03:58;99214.03;;;11.75;25.27
75945;BME280;64628;50.104;14.614;2024-03-07T11:06:24;99215.26;;;10.97;25.91
75945;BME280;64628;50.104;14.614;2024-03-07T11:08:49;99217.85;;;11.17;25.41
75945;BME280;64628;50.104;14.614;2024-03-07T11:11:14;99216.29;;;11.38;24.82
75945;BME280;64628;50.104;14.614;2024-03-07T11:13:40;99214.64;;;11.18;24.98
75945;BME280;64628;50.104;14.614;2024-03-07T11:16:06;99215.59;;;11.65;25.29
75945;BME280;64628;50.104;14.614;2024-03-07T11:18:30;99219.07;;;11.55;25.40
75945;BME280;64628;50.104;14.614;2024-03-07T11:20:56;99213.58;;;11.21;26.15
75945;BME280;64628;50.104;14.614;2024-03-07T11:23:27;99213.66;;;11.22;26.39
75945;BME280;64628;50.104;14.614;2024-03-07T11:25:48;99210.21;;;11.42;26.58
75945;BME280;64628;50.104;14.614;2024-03-07T11:28:16;99205.36;;;11.17;26.46
75945;BME280;64628;50.104;14.614;2024-03-07T11:30:38;99206.46;;;11.49;26.55
75945;BME280;64628;50.104;14.614;2024-03-07T11:33:07;99208.22;;;10.71;26.95
75945;BME280;64628;50.104;14.614;2024-03-07T11:35:33;99206.51;;;10.92;27.24
75945;BME280;64628;50.104;14.614;2024-03-07T11:37:57;99205.74;;;11.06;27.06
75945;BME280;64628;50.104;14.614;2024-03-07T11:42:47;99202.16;;;10.94;27.11
75945;BME280;64628;50.104;14.614;2024-03-07T11:45:11;99196.00;;;11.31;27.21
75945;BME280;64628;50.104;14.614;2024-03-07T11:47:38;99195.84;;;10.64;27.40
75945;BME280;64628;50.104;14.614;2024-03-07T11:50:03;99191.07;;;11.26;27.03
75945;BME280;64628;50.104;14.614;2024-03-07T11:52:28;99190.37;;;10.93;27.27
75945;BME280;64628;50.104;14.614;2024-03-07T11:54:53;99188.90;;;11.06;26.84
75945;BME280;64628;50.104;14.614;2024-03-07T11:57:19;99188.38;;;11.07;26.98
75945;BME280;64628;50.104;14.614;2024-03-07T11:59:45;99191.49;;;11.18;26.68
75945;BME280;64628;50.104;14.614;2024-03-07T12:02:09;99191.57;;;10.59;26.79
75945;BME280;64628;50.104;14.614;2024-03-07T12:04:35;99189.14;;;11.27;26.80
75945;BME280;64628;50.104;14.614;2024-03-07T12:07:00;99191.37;;;10.76;26.91
75945;BME280;64628;50.104;14.614;2024-03-07T12:09:25;99187.85;;;10.98;27.18
75945;BME280;64628;50.104;14.614;2024-03-07T12:11:51;99190.57;;;10.62;27.13
75945;BME280;64628;50.104;14.614;2024-03-07T12:14:16;99192.34;;;10.65;27.40
75945;BME280;64628;50.104;14.614;2024-03-07T12:16:42;99186.90;;;11.22;27.14
75945;BME280;64628;50.104;14.614;2024-03-07T12:19:09;99188.72;;;11.17;27.02
75945;BME280;64628;50.104;14.614;2024-03-07T12:21:33;99185.66;;;11.04;26.97
75945;BME280;64628;50.104;14.614;2024-03-07T12:23:59;99185.61;;;11.17;26.99
75945;BME280;64628;50.104;14.614;2024-03-07T12:26:25;99187.58;;;11.20;27.10
75945;BME280;64628;50.104;14.614;2024-03-07T12:28:50;99187.21;;;11.00;27.11
75945;BME280;64628;50.104;14.614;2024-03-07T12:31:15;99185.52;;;11.22;27.13
75945;BME280;64628;50.104;14.614;2024-03-07T12:33:41;99186.33;;;11.35;26.93
75945;BME280;64628;50.104;14.614;2024-03-07T12:36:07;99183.04;;;11.26;26.66
75945;BME280;64628;50.104;14.614;2024-03-07T12:38:32;99184.35;;;11.47;26.67
75945;BME280;64628;50.104;14.614;2024-03-07T12:41:03;99181.81;;;11.32;26.92
75945;BME280;64628;50.104;14.614;2024-03-07T12:43:23;99181.02;;;11.28;26.81
75945;BME280;64628;50.104;14.614;2024-03-07T12:45:50;99185.51;;;11.90;26.33
75945;BME280;64628;50.104;14.614;2024-03-07T12:48:14;99182.17;;;11.76;26.33